createdAt,value
2022-11-14T00:01:10.790Z,101822.13
2022-11-14T00:04:32.049Z,101822.03
2022-11-14T00:07:53.627Z,101813.22
2022-11-14T00:11:14.819Z,101819.00
2022-11-14T00:14:36.596Z,101814.63
2022-11-14T00:17:57.787Z,101814.78
2022-11-14T00:21:19.189Z,101809.53
2022-11-14T00:24:40.455Z,101819.09
2022-11-14T00:28:01.924Z,101814.69
2022-11-14T00:31:23.260Z,101810.81
2022-11-14T00:34:44.221Z,101816.50
2022-11-14T00:38:06.025Z,101820.56
2022-11-14T00:41:26.768Z,101832.34
2022-11-14T00:44:47.613Z,101824.16
2022-11-14T00:48:08.907Z,101812.84
2022-11-14T00:51:29.823Z,101814.09
2022-11-14T00:54:51.017Z,101807.72
2022-11-14T00:58:12.519Z,101806.22
2022-11-14T01:01:33.766Z,101801.25
2022-11-14T01:04:55.255Z,101800.56
2022-11-14T01:08:18.458Z,101802.38
2022-11-14T01:11:39.678Z,101802.38
2022-11-14T01:15:00.818Z,101802.53
2022-11-14T01:18:22.250Z,101796.59
2022-11-14T01:21:43.540Z,101798.97
2022-11-14T01:25:05.134Z,101797.72
2022-11-14T01:28:26.049Z,101790.53
2022-11-14T01:31:47.555Z,101787.91
2022-11-14T01:35:09.000Z,101784.72
2022-11-14T01:38:33.952Z,101778.81
2022-11-14T01:41:55.922Z,101776.47
2022-11-14T01:46:02.079Z,101781.84
2022-11-14T01:49:29.885Z,101778.94
2022-11-14T01:52:51.007Z,101767.91
2022-11-14T01:56:17.586Z,101764.97
2022-11-14T01:59:42.719Z,101768.84
2022-11-14T02:03:04.603Z,101765.25
2022-11-14T02:06:29.157Z,101767.47
2022-11-14T02:09:50.180Z,101771.06
2022-11-14T02:13:11.497Z,101778.53
2022-11-14T02:16:32.682Z,101776.31
2022-11-14T02:20:06.148Z,101787.94
2022-11-14T02:23:29.647Z,101796.09
2022-11-14T02:26:50.769Z,101782.81
2022-11-14T02:30:15.091Z,101779.88
2022-11-14T02:33:36.318Z,101785.97
2022-11-14T02:36:58.123Z,101779.75
2022-11-14T02:40:19.346Z,101779.06
2022-11-14T02:43:40.713Z,101770.38
2022-11-14T02:47:02.040Z,101775.59
2022-11-14T02:50:23.256Z,101773.25
2022-11-14T02:53:45.629Z,101779.09
2022-11-14T02:57:06.871Z,101774.53
2022-11-14T03:00:27.987Z,101773.28
2022-11-14T03:03:49.034Z,101779.22
2022-11-14T03:07:10.433Z,101770.63
2022-11-14T03:10:31.973Z,101776.59
2022-11-14T03:13:53.285Z,101774.81
2022-11-14T03:17:14.668Z,101770.91
2022-11-14T03:20:36.300Z,101768.84
2022-11-14T03:23:57.466Z,101758.78
2022-11-14T03:27:19.112Z,101756.69
2022-11-14T03:30:39.988Z,101753.09
2022-11-14T03:34:01.138Z,101751.97
2022-11-14T03:37:22.531Z,101752.66
2022-11-14T03:40:44.925Z,101748.97
2022-11-14T03:44:06.156Z,101749.34
2022-11-14T03:47:27.693Z,101743.13
2022-11-14T03:50:49.341Z,101751.00
2022-11-14T03:54:10.669Z,101742.59
2022-11-14T03:57:31.948Z,101735.00
2022-11-14T04:00:53.596Z,101732.91
2022-11-14T04:04:15.247Z,101729.03
2022-11-14T04:07:36.491Z,101731.66
2022-11-14T04:10:57.723Z,101730.16
2022-11-14T04:14:18.734Z,101726.69
2022-11-14T04:17:40.173Z,101731.63
2022-11-14T04:21:01.636Z,101738.97
2022-11-14T04:24:22.766Z,101745.31
2022-11-14T04:27:44.444Z,101749.31
2022-11-14T04:31:05.499Z,101740.34
2022-11-14T04:34:26.796Z,101734.63
2022-11-14T04:37:48.015Z,101734.09
2022-11-14T04:41:09.822Z,101730.13
2022-11-14T04:44:31.285Z,101734.13
2022-11-14T04:47:52.381Z,101733.25
2022-11-14T04:51:13.324Z,101737.28
2022-11-14T04:54:34.685Z,101738.69
2022-11-14T04:57:57.178Z,101735.47
2022-11-14T05:01:18.416Z,101740.34
2022-11-14T05:04:39.443Z,101737.44
2022-11-14T05:08:00.931Z,101747.25
2022-11-14T05:11:26.657Z,101751.69
2022-11-14T05:14:50.143Z,101758.56
2022-11-14T05:18:11.459Z,101764.97
2022-11-14T05:21:32.684Z,101761.22
2022-11-14T05:24:53.944Z,101772.00
2022-11-14T05:28:15.315Z,101776.59
2022-11-14T05:31:36.455Z,101778.22
2022-11-14T05:34:57.722Z,101773.25
2022-11-14T05:38:18.982Z,101781.09
2022-11-14T05:41:40.579Z,101770.28
2022-11-14T05:45:01.839Z,101773.22
2022-11-14T05:48:23.038Z,101766.44
2022-11-14T05:51:44.100Z,101767.31
2022-11-14T05:55:05.961Z,101770.88
2022-11-14T05:58:27.815Z,101770.22
2022-11-14T06:01:49.296Z,101776.41
2022-11-14T06:05:10.687Z,101776.69
2022-11-14T06:08:33.430Z,101788.72
2022-11-14T06:11:54.834Z,101784.28
2022-11-14T06:15:16.215Z,101791.75
2022-11-14T06:18:38.375Z,101786.06
2022-11-14T06:21:59.953Z,101784.22
2022-11-14T06:25:21.554Z,101775.97
2022-11-14T06:28:43.209Z,101786.25
2022-11-14T06:32:05.062Z,101793.28
2022-11-14T06:35:27.791Z,101790.00
2022-11-14T06:38:49.752Z,101782.91
2022-11-14T06:42:11.135Z,101784.44
2022-11-14T06:45:32.832Z,101783.72
2022-11-14T06:48:54.349Z,101778.47
2022-11-14T06:52:15.473Z,101789.44
2022-11-14T06:55:36.811Z,101783.72
2022-11-14T06:58:58.231Z,101797.97
2022-11-14T07:02:22.068Z,101793.84
2022-11-14T07:05:43.675Z,101796.59
2022-11-14T07:09:05.878Z,101802.50
2022-11-14T07:12:27.104Z,101805.94
2022-11-14T07:15:54.991Z,101801.31
2022-11-14T07:19:16.665Z,101795.16
2022-11-14T07:22:37.823Z,101803.13
2022-11-14T07:26:04.669Z,101802.13
2022-11-14T07:29:29.607Z,101796.28
2022-11-14T07:32:58.521Z,101799.22
2022-11-14T07:36:20.276Z,101808.53
2022-11-14T07:39:41.782Z,101802.06
2022-11-14T07:43:03.871Z,101811.25
2022-11-14T07:46:25.371Z,101808.09
2022-11-14T07:49:46.614Z,101806.16
2022-11-14T07:53:08.231Z,101807.00
2022-11-14T07:56:29.966Z,101801.34
2022-11-14T07:59:54.013Z,101808.06
2022-11-14T08:03:15.444Z,101794.38
2022-11-14T08:06:37.122Z,101799.09
2022-11-14T08:10:01.326Z,101799.44
2022-11-14T08:13:32.288Z,101796.59
2022-11-14T08:16:54.709Z,101798.06
2022-11-14T08:20:19.057Z,101789.94
2022-11-14T08:23:40.430Z,101781.97
2022-11-14T08:27:01.960Z,101779.09
2022-11-14T08:30:23.579Z,101774.69
2022-11-14T08:33:45.073Z,101770.81
2022-11-14T08:37:06.414Z,101772.25
2022-11-14T08:40:27.686Z,101755.06
2022-11-14T08:43:49.324Z,101751.59
2022-11-14T08:47:10.667Z,101761.47
2022-11-14T08:50:32.505Z,101765.72
2022-11-14T08:53:54.079Z,101753.28
2022-11-14T08:57:15.686Z,101762.00
2022-11-14T09:00:37.258Z,101749.88
2022-11-14T09:04:00.295Z,101759.53
2022-11-14T09:07:22.051Z,101758.91
2022-11-14T09:10:43.477Z,101764.69
2022-11-14T09:14:04.925Z,101754.47
2022-11-14T09:17:26.657Z,101750.69
2022-11-14T09:20:47.966Z,101744.81
2022-11-14T09:24:10.054Z,101742.06
2022-11-14T09:27:30.989Z,101725.75
2022-11-14T09:30:52.372Z,101726.59
2022-11-14T09:34:14.320Z,101718.44
2022-11-14T09:37:35.732Z,101717.81
2022-11-14T09:41:09.424Z,101712.38
2022-11-14T09:44:52.069Z,101707.78
2022-11-14T09:48:16.422Z,101710.16
2022-11-14T09:51:50.396Z,101696.75
2022-11-14T09:55:21.370Z,101692.41
2022-11-14T09:58:47.858Z,101700.47
2022-11-14T10:02:40.364Z,101692.59
2022-11-14T10:06:47.279Z,101683.47
2022-11-14T10:10:38.368Z,101686.31
2022-11-14T10:14:22.716Z,101680.53
2022-11-14T10:18:10.357Z,101671.66
2022-11-14T10:21:58.119Z,101683.34
2022-11-14T10:25:44.556Z,101671.44
2022-11-14T10:29:38.361Z,101664.34
2022-11-14T10:33:18.104Z,101662.56
2022-11-14T10:37:06.744Z,101655.88
2022-11-14T10:40:44.808Z,101649.69
2022-11-14T10:44:14.155Z,101645.19
2022-11-14T10:47:49.028Z,101638.44
2022-11-14T10:51:28.464Z,101642.47
2022-11-14T10:55:00.287Z,101620.72
2022-11-14T10:58:21.779Z,101621.19
2022-11-14T11:01:46.610Z,101622.19
2022-11-14T11:05:19.187Z,101622.09
2022-11-14T11:09:07.966Z,101614.06
2022-11-14T11:12:42.220Z,101623.75
2022-11-14T11:16:05.083Z,101618.22
2022-11-14T11:19:27.809Z,101610.91
2022-11-14T11:23:17.859Z,101608.97
2022-11-14T11:26:38.978Z,101612.19
2022-11-14T11:30:18.039Z,101601.38
2022-11-14T11:33:40.142Z,101594.53
2022-11-14T11:37:18.388Z,101581.66
2022-11-14T11:40:44.939Z,101581.34
2022-11-14T11:44:14.751Z,101578.06
2022-11-14T11:47:41.379Z,101562.06
2022-11-14T11:51:10.636Z,101556.94
2022-11-14T11:54:51.435Z,101543.75
2022-11-14T11:58:41.830Z,101537.38
2022-11-14T12:02:24.873Z,101533.22
2022-11-14T12:06:13.031Z,101534.06
2022-11-14T12:10:09.509Z,101520.22
2022-11-14T12:13:49.322Z,101511.94
2022-11-14T12:17:11.070Z,101509.72
2022-11-14T12:21:13.407Z,101504.22
2022-11-14T12:24:54.451Z,101494.50
2022-11-14T12:28:29.036Z,101490.34
2022-11-14T12:32:03.538Z,101490.47
2022-11-14T12:35:30.069Z,101489.72
2022-11-14T12:38:54.664Z,101489.91
2022-11-14T12:42:21.427Z,101494.53
2022-11-14T12:45:42.608Z,101493.22
2022-11-14T12:49:43.170Z,101501.63
2022-11-14T12:53:40.411Z,101507.59
2022-11-14T12:57:09.976Z,101511.38
2022-11-14T13:00:35.032Z,101508.59
2022-11-14T13:04:02.844Z,101501.81
2022-11-14T13:07:38.906Z,101507.09
2022-11-14T13:11:00.418Z,101504.88
2022-11-14T13:14:40.775Z,101490.31
2022-11-14T13:18:42.471Z,101487.16
2022-11-14T13:22:13.368Z,101479.47
2022-11-14T13:25:34.811Z,101476.84
2022-11-14T13:28:58.053Z,101464.00
2022-11-14T13:32:41.915Z,101472.13
2022-11-14T13:36:05.729Z,101479.81
2022-11-14T13:39:42.223Z,101477.00
2022-11-14T13:43:24.896Z,101481.72
2022-11-14T13:47:25.569Z,101476.81
2022-11-14T13:50:55.693Z,101474.19
2022-11-14T13:54:18.488Z,101469.91
2022-11-14T13:57:52.726Z,101462.06
2022-11-14T14:01:26.377Z,101462.84
2022-11-14T14:05:15.483Z,101461.47
2022-11-14T14:09:10.122Z,101446.66
2022-11-14T14:12:56.351Z,101451.72
2022-11-14T14:16:31.918Z,101446.66
2022-11-14T14:20:18.495Z,101441.06
2022-11-14T14:23:48.191Z,101445.00
2022-11-14T14:27:46.902Z,101448.44
2022-11-14T14:31:12.547Z,101451.94
2022-11-14T14:34:34.516Z,101453.78
2022-11-14T14:37:57.379Z,101457.41
2022-11-14T14:41:20.163Z,101442.19
2022-11-14T14:44:41.490Z,101444.75
2022-11-14T14:48:06.928Z,101442.78
2022-11-14T14:51:38.316Z,101437.88
2022-11-14T14:55:02.581Z,101439.88
2022-11-14T14:58:26.423Z,101439.41
2022-11-14T15:01:48.408Z,101429.19
2022-11-14T15:05:09.972Z,101426.22
2022-11-14T15:08:38.794Z,101422.44
2022-11-14T15:12:01.633Z,101417.16
2022-11-14T15:15:25.802Z,101420.78
2022-11-14T15:18:48.085Z,101413.69
2022-11-14T15:22:15.606Z,101422.28
2022-11-14T15:25:37.881Z,101417.84
2022-11-14T15:29:18.586Z,101423.78
2022-11-14T15:32:48.728Z,101429.38
2022-11-14T15:36:13.354Z,101436.97
2022-11-14T15:39:34.961Z,101429.72
2022-11-14T15:42:56.002Z,101420.00
2022-11-14T15:46:35.384Z,101420.00
2022-11-14T15:50:06.600Z,101413.06
2022-11-14T15:53:30.502Z,101410.09
2022-11-14T15:56:53.006Z,101407.09
2022-11-14T16:00:15.762Z,101399.88
2022-11-14T16:03:36.974Z,101405.63
2022-11-14T16:06:58.731Z,101401.19
2022-11-14T16:10:25.822Z,101396.56
2022-11-14T16:13:47.278Z,101395.25
2022-11-14T16:17:17.472Z,101399.69
2022-11-14T16:20:41.889Z,101395.09
2022-11-14T16:24:03.243Z,101399.53
2022-11-14T16:27:24.616Z,101386.50
2022-11-14T16:30:45.827Z,101382.88
2022-11-14T16:34:11.170Z,101382.88
2022-11-14T16:37:34.509Z,101388.66
2022-11-14T16:40:55.652Z,101396.41
2022-11-14T16:44:17.448Z,101398.41
2022-11-14T16:47:40.132Z,101398.06
2022-11-14T16:51:14.924Z,101396.75
2022-11-14T16:54:41.753Z,101397.56
2022-11-14T16:58:03.432Z,101396.75
2022-11-14T17:01:24.622Z,101399.69
2022-11-14T17:04:46.028Z,101388.50
2022-11-14T17:08:07.089Z,101387.16
2022-11-14T17:11:28.720Z,101385.34
2022-11-14T17:14:50.064Z,101385.84
2022-11-14T17:18:11.373Z,101392.09
2022-11-14T17:21:32.873Z,101394.25
2022-11-14T17:24:53.736Z,101389.31
2022-11-14T17:28:15.453Z,101377.25
2022-11-14T17:31:38.942Z,101379.88
2022-11-14T17:35:03.096Z,101375.13
2022-11-14T17:38:24.265Z,101374.09
2022-11-14T17:41:45.468Z,101367.53
2022-11-14T17:45:07.369Z,101376.47
2022-11-14T17:48:29.433Z,101374.47
2022-11-14T17:51:51.359Z,101377.25
2022-11-14T17:55:12.799Z,101371.97
2022-11-14T17:58:34.512Z,101373.63
2022-11-14T18:02:02.434Z,101367.53
2022-11-14T18:05:23.962Z,101371.13
2022-11-14T18:08:45.514Z,101373.97
2022-11-14T18:12:07.270Z,101379.03
2022-11-14T18:15:28.560Z,101367.38
2022-11-14T18:18:51.526Z,101369.66
2022-11-14T18:22:12.887Z,101369.66
2022-11-14T18:25:34.747Z,101367.38
2022-11-14T18:29:02.285Z,101363.41
2022-11-14T18:32:23.791Z,101370.34
2022-11-14T18:35:45.067Z,101371.13
2022-11-14T18:39:06.669Z,101361.47
2022-11-14T18:42:28.760Z,101359.47
2022-11-14T18:45:49.946Z,101356.31
2022-11-14T18:49:12.035Z,101355.50
2022-11-14T18:52:33.609Z,101355.50
2022-11-14T18:55:55.013Z,101338.97
2022-11-14T18:59:17.854Z,101348.69
2022-11-14T19:02:39.776Z,101343.28
2022-11-14T19:06:08.632Z,101341.63
2022-11-14T19:09:30.265Z,101345.28
2022-11-14T19:12:52.012Z,101343.75
2022-11-14T19:16:14.346Z,101339.66
2022-11-14T19:19:36.090Z,101345.56
2022-11-14T19:22:57.931Z,101326.59
2022-11-14T19:26:19.406Z,101330.91
2022-11-14T19:29:40.877Z,101327.59
2022-11-14T19:33:04.817Z,101332.06
2022-11-14T19:36:58.412Z,101336.19
2022-11-14T19:40:09.077Z,101336.19
2022-11-14T19:43:30.296Z,101339.47
2022-11-14T19:46:51.771Z,101342.78
2022-11-14T19:50:15.770Z,101339.47
2022-11-14T19:53:39.174Z,101337.66
2022-11-14T19:57:00.939Z,101349.50
2022-11-14T20:00:25.035Z,101342.13
2022-11-14T20:04:00.953Z,101340.97
2022-11-14T20:07:22.619Z,101342.28
2022-11-14T20:11:04.974Z,101347.38
2022-11-14T20:14:26.691Z,101344.13
2022-11-14T20:17:48.639Z,101345.56
2022-11-14T20:21:13.427Z,101335.19
2022-11-14T20:24:34.984Z,101316.25
2022-11-14T20:27:56.390Z,101327.25
2022-11-14T20:31:23.317Z,101319.66
2022-11-14T20:34:45.117Z,101306.66
2022-11-14T20:38:07.808Z,101302.19
2022-11-14T20:41:29.446Z,101289.03
2022-11-14T20:44:51.102Z,101291.66
2022-11-14T20:48:12.618Z,101289.31
2022-11-14T20:51:36.832Z,101282.22
2022-11-14T20:54:58.391Z,101287.00
2022-11-14T20:58:20.593Z,101285.66
2022-11-14T21:01:43.924Z,101287.66
2022-11-14T21:05:05.820Z,101287.66
2022-11-14T21:08:27.029Z,101287.94
2022-11-14T21:11:48.043Z,101284.81
2022-11-14T21:15:09.820Z,101289.44
2022-11-14T21:18:31.782Z,101299.19
2022-11-14T21:21:53.437Z,101287.59
2022-11-14T21:25:14.670Z,101288.63
2022-11-14T21:28:38.952Z,101289.25
2022-11-14T21:32:00.415Z,101274.59
2022-11-14T21:35:21.809Z,101280.03
2022-11-14T21:38:42.961Z,101271.00
2022-11-14T21:42:04.235Z,101265.34
2022-11-14T21:45:25.689Z,101256.28
2022-11-14T21:48:48.206Z,101250.06
2022-11-14T21:52:09.491Z,101250.75
2022-11-14T21:55:33.708Z,101252.69
2022-11-14T21:59:13.068Z,101249.69
2022-11-14T22:02:53.582Z,101247.09
2022-11-14T22:06:14.563Z,101254.03
2022-11-14T22:09:39.862Z,101256.66
2022-11-14T22:13:02.329Z,101254.88
2022-11-14T22:16:24.056Z,101254.75
2022-11-14T22:19:46.104Z,101257.41
2022-11-14T22:23:08.346Z,101255.09
2022-11-14T22:26:30.122Z,101258.25
2022-11-14T22:29:51.016Z,101254.47
2022-11-14T22:33:12.281Z,101257.66
2022-11-14T22:36:33.669Z,101265.38
2022-11-14T22:39:55.007Z,101256.69
2022-11-14T22:43:17.251Z,101255.69
2022-11-14T22:46:39.285Z,101262.28
2022-11-14T22:50:00.857Z,101260.16
2022-11-14T22:53:21.973Z,101262.78
2022-11-14T22:56:43.061Z,101258.97
2022-11-14T23:00:04.538Z,101248.25
2022-11-14T23:03:26.054Z,101255.19
2022-11-14T23:06:48.017Z,101256.66
2022-11-14T23:10:09.274Z,101266.06
2022-11-14T23:13:30.883Z,101265.06
2022-11-14T23:16:52.257Z,101261.13
2022-11-14T23:20:16.413Z,101258.16
2022-11-14T23:23:39.057Z,101248.59
2022-11-14T23:27:00.458Z,101247.97
2022-11-14T23:30:23.154Z,101239.88
2022-11-14T23:33:47.271Z,101237.75
2022-11-14T23:37:08.905Z,101240.72
2022-11-14T23:40:29.949Z,101245.00
2022-11-14T23:43:51.734Z,101241.03
2022-11-14T23:47:13.355Z,101237.38
2022-11-14T23:50:35.185Z,101225.03
2022-11-14T23:53:56.633Z,101226.47
2022-11-14T23:57:17.735Z,101218.59
